sensor_id;sensor_type;location;lat;lon;timestamp;P1;durP1;ratioP1;P2;durP2;ratioP2
12072;SDS011;6098;49.004;8.372;2022-09-01T00:01:44;9.21;;;6.19;;
12072;SDS011;6098;49.004;8.372;2022-09-01T00:16:35;8.44;;;7.64;;
12072;SDS011;6098;49.004;8.372;2022-09-01T00:31:27;8.62;;;7.82;;
12072;SDS011;6098;49.004;8.372;2022-09-01T00:46:19;7.73;;;7.02;;
12072;SDS011;6098;49.004;8.372;2022-09-01T01:01:15;8.47;;;6.06;;
12072;SDS011;6098;49.004;8.372;2022-09-01T01:16:06;8.69;;;5.64;;
12072;SDS011;6098;49.004;8.372;2022-09-01T01:45:50;7.19;;;6.56;;
12072;SDS011;6098;49.004;8.372;2022-09-01T02:00:39;8.59;;;6.86;;
12072;SDS011;6098;49.004;8.372;2022-09-01T02:15:35;8.40;;;7.22;;
12072;SDS011;6098;49.004;8.372;2022-09-01T02:30:24;6.98;;;6.23;;
12072;SDS011;6098;49.004;8.372;2022-09-01T02:45:15;7.68;;;6.91;;
12072;SDS011;6098;49.004;8.372;2022-09-01T03:00:07;7.53;;;6.72;;
12072;SDS011;6098;49.004;8.372;2022-09-01T03:14:57;7.96;;;7.00;;
12072;SDS011;6098;49.004;8.372;2022-09-01T03:29:50;8.20;;;7.28;;
12072;SDS011;6098;49.004;8.372;2022-09-01T03:44:41;8.14;;;7.38;;
12072;SDS011;6098;49.004;8.372;2022-09-01T03:59:31;9.37;;;7.78;;
12072;SDS011;6098;49.004;8.372;2022-09-01T04:14:22;9.09;;;8.21;;
12072;SDS011;6098;49.004;8.372;2022-09-01T04:29:13;9.54;;;8.39;;
12072;SDS011;6098;49.004;8.372;2022-09-01T04:44:05;11.64;;;9.29;;
12072;SDS011;6098;49.004;8.372;2022-09-01T04:58:55;10.38;;;9.33;;
12072;SDS011;6098;49.004;8.372;2022-09-01T05:13:47;10.58;;;9.53;;
12072;SDS011;6098;49.004;8.372;2022-09-01T05:28:38;11.38;;;10.27;;
12072;SDS011;6098;49.004;8.372;2022-09-01T05:43:30;13.14;;;11.74;;
12072;SDS011;6098;49.004;8.372;2022-09-01T05:58:23;13.87;;;12.31;;
12072;SDS011;6098;49.004;8.372;2022-09-01T06:13:15;16.39;;;12.58;;
12072;SDS011;6098;49.004;8.372;2022-09-01T06:28:07;16.99;;;12.87;;
12072;SDS011;6098;49.004;8.372;2022-09-01T06:42:59;13.44;;;11.61;;
12072;SDS011;6098;49.004;8.372;2022-09-01T06:57:51;15.22;;;12.10;;
12072;SDS011;6098;49.004;8.372;2022-09-01T07:12:43;12.81;;;11.41;;
12072;SDS011;6098;49.004;8.372;2022-09-01T07:27:35;12.73;;;11.41;;
12072;SDS011;6098;49.004;8.372;2022-09-01T07:42:27;11.72;;;10.52;;
12072;SDS011;6098;49.004;8.372;2022-09-01T07:57:19;13.02;;;10.40;;
12072;SDS011;6098;49.004;8.372;2022-09-01T08:12:12;11.61;;;9.63;;
12072;SDS011;6098;49.004;8.372;2022-09-01T08:27:05;9.52;;;8.52;;
12072;SDS011;6098;49.004;8.372;2022-09-01T08:57:09;7.28;;;6.60;;
12072;SDS011;6098;49.004;8.372;2022-09-01T09:27:46;5.31;;;4.81;;
12072;SDS011;6098;49.004;8.372;2022-09-01T09:57:47;7.61;;;5.93;;
12072;SDS011;6098;49.004;8.372;2022-09-01T10:12:40;10.54;;;5.59;;
12072;SDS011;6098;49.004;8.372;2022-09-01T10:27:34;5.57;;;5.07;;
12072;SDS011;6098;49.004;8.372;2022-09-01T10:42:26;4.96;;;4.32;;
12072;SDS011;6098;49.004;8.372;2022-09-01T11:12:42;4.93;;;4.47;;
12072;SDS011;6098;49.004;8.372;2022-09-01T11:42:44;5.24;;;4.74;;
12072;SDS011;6098;49.004;8.372;2022-09-01T11:57:37;6.09;;;4.86;;
12072;SDS011;6098;49.004;8.372;2022-09-01T12:12:35;5.68;;;4.82;;
12072;SDS011;6098;49.004;8.372;2022-09-01T12:27:29;5.57;;;4.34;;
12072;SDS011;6098;49.004;8.372;2022-09-01T12:42:24;4.44;;;4.04;;
12072;SDS011;6098;49.004;8.372;2022-09-01T12:57:28;4.20;;;3.90;;
12072;SDS011;6098;49.004;8.372;2022-09-01T13:12:27;3.96;;;3.56;;
12072;SDS011;6098;49.004;8.372;2022-09-01T13:27:19;3.78;;;3.47;;
12072;SDS011;6098;49.004;8.372;2022-09-01T13:42:11;4.28;;;3.26;;
12072;SDS011;6098;49.004;8.372;2022-09-01T13:57:04;3.78;;;3.14;;
12072;SDS011;6098;49.004;8.372;2022-09-01T17:14:51;4.01;;;3.71;;
12072;SDS011;6098;49.004;8.372;2022-09-01T17:29:47;6.43;;;4.87;;
12072;SDS011;6098;49.004;8.372;2022-09-01T17:44:44;5.68;;;5.14;;
12072;SDS011;6098;49.004;8.372;2022-09-01T17:59:41;5.29;;;4.79;;
12072;SDS011;6098;49.004;8.372;2022-09-01T18:30:44;4.10;;;3.70;;
12072;SDS011;6098;49.004;8.372;2022-09-01T18:46:09;3.64;;;3.34;;
12072;SDS011;6098;49.004;8.372;2022-09-01T19:01:11;3.95;;;3.19;;
12072;SDS011;6098;49.004;8.372;2022-09-01T19:31:02;5.53;;;3.60;;
12072;SDS011;6098;49.004;8.372;2022-09-01T19:45:55;3.96;;;3.56;;
12072;SDS011;6098;49.004;8.372;2022-09-01T20:01:10;6.20;;;3.64;;
12072;SDS011;6098;49.004;8.372;2022-09-01T20:31:10;4.57;;;4.18;;
12072;SDS011;6098;49.004;8.372;2022-09-01T20:46:09;4.76;;;4.28;;
12072;SDS011;6098;49.004;8.372;2022-09-01T21:16:19;5.95;;;4.30;;
12072;SDS011;6098;49.004;8.372;2022-09-01T21:31:33;5.01;;;4.37;;
12072;SDS011;6098;49.004;8.372;2022-09-01T21:46:25;8.60;;;4.24;;
12072;SDS011;6098;49.004;8.372;2022-09-01T22:01:16;5.43;;;4.39;;
12072;SDS011;6098;49.004;8.372;2022-09-01T22:16:07;6.07;;;4.24;;
12072;SDS011;6098;49.004;8.372;2022-09-01T22:30:59;4.81;;;4.41;;
12072;SDS011;6098;49.004;8.372;2022-09-01T22:45:50;4.80;;;4.23;;
12072;SDS011;6098;49.004;8.372;2022-09-01T23:00:46;6.59;;;4.30;;
12072;SDS011;6098;49.004;8.372;2022-09-01T23:15:37;5.49;;;3.92;;
12072;SDS011;6098;49.004;8.372;2022-09-01T23:30:31;4.64;;;4.14;;
12072;SDS011;6098;49.004;8.372;2022-09-01T23:45:23;4.60;;;4.27;;
